Time;durP1;ratioP1;P1;durP2;ratioP2;P2;SDS_P1;SDS_P2;PMS_P1;PMS_P2;Temp;Humidity;BMP_temperature;BMP_pressure;BME280_temperature;BME280_humidity;BME280_pressure;Samples;Min_cycle;Max_cycle;Signal;HPM_P1;HPM_P2
2021/09/07 00:00:14;;;;;;;18.80;10.90;;;18.70;99.90;;;;;;4995204;28;20482;-49
2021/09/07 00:02:41;;;;;;;16.60;9.40;;;18.70;99.90;;;;;;4994959;28;20442;-53
2021/09/07 00:05:10;;;;;;;15.97;11.17;;;18.70;99.90;;;;;;4993394;28;20492;-55
2021/09/07 00:07:37;;;;;;;15.97;10.93;;;18.70;99.90;;;;;;4992821;28;20474;-50
2021/09/07 00:10:07;;;;;;;13.30;11.07;;;18.70;99.90;;;;;;4994090;28;20843;-55
2021/09/07 00:12:34;;;;;;;16.70;10.20;;;18.70;99.90;;;;;;4991299;28;20509;-50
2021/09/07 00:15:01;;;;;;;15.53;10.17;;;18.70;99.90;;;;;;4991208;28;20442;-48
2021/09/07 00:17:28;;;;;;;14.97;10.17;;;18.60;99.90;;;;;;4992868;28;20459;-50
2021/09/07 00:19:54;;;;;;;17.23;9.30;;;18.70;99.90;;;;;;4994961;28;20532;-51
2021/09/07 00:22:21;;;;;;;14.60;11.47;;;18.70;99.90;;;;;;4995378;28;20438;-52
2021/09/07 00:24:47;;;;;;;17.33;11.00;;;18.70;99.90;;;;;;4995809;28;20500;-53
2021/09/07 00:27:15;;;;;;;12.27;9.00;;;18.60;99.90;;;;;;4994835;28;20466;-49
2021/09/07 00:29:42;;;;;;;13.83;10.20;;;18.60;99.90;;;;;;4994893;28;20549;-49
2021/09/07 00:32:11;;;;;;;18.87;10.03;;;18.70;99.90;;;;;;4993362;28;20468;-53
2021/09/07 00:34:38;;;;;;;16.80;9.47;;;18.60;99.90;;;;;;4992652;28;20454;-54
2021/09/07 00:37:05;;;;;;;14.80;10.70;;;18.60;99.90;;;;;;4994196;28;20907;-51
2021/09/07 00:39:32;;;;;;;13.80;10.27;;;18.60;99.90;;;;;;4994106;28;20859;-55
2021/09/07 00:41:58;;;;;;;17.10;10.47;;;18.60;99.90;;;;;;4993954;28;20462;-53
2021/09/07 00:44:26;;;;;;;16.87;10.90;;;18.50;99.90;;;;;;4994294;28;20454;-50
2021/09/07 00:46:54;;;;;;;14.43;9.37;;;18.60;99.90;;;;;;4994225;28;20586;-51
2021/09/07 00:49:22;;;;;;;21.00;9.77;;;18.60;99.90;;;;;;4994150;28;20501;-51
2021/09/07 00:51:51;;;;;;;14.27;10.70;;;18.60;99.90;;;;;;4992305;28;20450;-50
2021/09/07 00:54:20;;;;;;;15.73;10.77;;;18.50;99.90;;;;;;4994337;28;20445;-51
2021/09/07 00:56:49;;;;;;;17.90;9.80;;;18.50;99.90;;;;;;4993956;28;20513;-51
2021/09/07 00:59:16;;;;;;;11.67;8.73;;;18.50;99.90;;;;;;4991973;28;20489;-48
2021/09/07 01:01:46;;;;;;;15.67;10.63;;;18.50;99.90;;;;;;4992214;28;20526;-52
2021/09/07 01:04:13;;;;;;;15.07;10.20;;;18.50;99.90;;;;;;4992858;28;20530;-50
2021/09/07 01:06:40;;;;;;;14.57;10.30;;;18.50;99.90;;;;;;4993979;28;20492;-53
2021/09/07 01:09:08;;;;;;;14.83;9.73;;;18.50;99.90;;;;;;4992072;28;20446;-52
2021/09/07 01:11:35;;;;;;;14.03;9.43;;;18.50;99.90;;;;;;4992030;28;20443;-55
2021/09/07 01:14:02;;;;;;;17.60;10.17;;;18.50;99.90;;;;;;4994151;28;20500;-54
2021/09/07 01:16:29;;;;;;;13.03;9.60;;;18.50;99.90;;;;;;4993790;28;20445;-55
2021/09/07 01:18:59;;;;;;;14.20;10.33;;;18.50;99.90;;;;;;4992407;28;20536;-52
2021/09/07 01:21:27;;;;;;;13.83;9.90;;;18.50;99.90;;;;;;4991943;28;20473;-52
2021/09/07 01:23:54;;;;;;;15.13;9.67;;;18.50;99.90;;;;;;4992682;28;20443;-52
2021/09/07 01:26:23;;;;;;;15.43;10.17;;;18.50;99.90;;;;;;4993491;28;20454;-52
2021/09/07 01:28:49;;;;;;;19.03;10.30;;;18.40;99.90;;;;;;4991720;28;20447;-53
2021/09/07 01:31:17;;;;;;;14.10;9.20;;;18.40;99.90;;;;;;4993942;28;20879;-54
2021/09/07 01:33:47;;;;;;;16.00;8.73;;;18.40;99.90;;;;;;4991262;28;20822;-51
2021/09/07 01:36:14;;;;;;;13.30;9.97;;;18.30;99.90;;;;;;4983779;28;20462;-54
2021/09/07 01:38:41;;;;;;;14.07;10.10;;;18.30;99.90;;;;;;4985430;28;20446;-55
2021/09/07 01:41:08;;;;;;;18.17;10.73;;;18.30;99.90;;;;;;4985921;28;20473;-54
2021/09/07 01:43:36;;;;;;;12.40;8.77;;;18.20;99.90;;;;;;4985765;28;20466;-53
2021/09/07 01:46:03;;;;;;;12.30;9.17;;;18.20;99.90;;;;;;4985955;28;20496;-54
2021/09/07 01:48:30;;;;;;;14.37;9.10;;;18.10;99.90;;;;;;4983363;28;20503;-52
2021/09/07 01:50:57;;;;;;;14.63;9.43;;;18.10;99.90;;;;;;4984146;28;20449;-53
2021/09/07 01:53:25;;;;;;;14.73;10.63;;;18.00;99.90;;;;;;4985004;28;20494;-54
2021/09/07 01:55:52;;;;;;;12.87;9.43;;;18.00;99.90;;;;;;4983662;28;20443;-50
2021/09/07 01:58:18;;;;;;;16.00;9.83;;;17.90;99.90;;;;;;4986264;28;20910;-55
2021/09/07 02:00:46;;;;;;;13.07;8.93;;;17.90;99.90;;;;;;4988601;28;20958;-57
2021/09/07 02:03:13;;;;;;;12.77;9.70;;;17.90;99.90;;;;;;4978510;28;20536;-52
2021/09/07 02:05:40;;;;;;;15.93;11.03;;;17.80;99.90;;;;;;4990991;28;20441;-53
2021/09/07 02:08:07;;;;;;;16.00;10.10;;;17.80;99.90;;;;;;4989308;28;20867;-52
2021/09/07 02:10:33;;;;;;;14.00;10.53;;;17.80;99.90;;;;;;4987831;28;20446;-49
2021/09/07 02:13:00;;;;;;;14.23;9.37;;;17.70;99.90;;;;;;4987882;28;20442;-51
2021/09/07 02:15:29;;;;;;;14.30;9.67;;;17.70;99.90;;;;;;4988668;28;20449;-52
2021/09/07 02:17:57;;;;;;;15.03;11.20;;;17.60;99.90;;;;;;4984806;28;20498;-54
2021/09/07 02:20:23;;;;;;;17.60;11.23;;;17.50;99.90;;;;;;4986853;28;20486;-55
2021/09/07 02:22:50;;;;;;;14.67;9.90;;;17.50;99.90;;;;;;4986530;28;20443;-51
2021/09/07 02:25:17;;;;;;;11.10;9.33;;;17.50;99.90;;;;;;4986829;28;20457;-54
2021/09/07 02:27:43;;;;;;;17.47;11.50;;;17.50;99.90;;;;;;4988584;28;20523;-54
2021/09/07 02:30:11;;;;;;;17.93;10.50;;;17.40;99.90;;;;;;4987635;28;20475;-51
2021/09/07 02:32:38;;;;;;;15.77;10.93;;;17.40;99.90;;;;;;4986269;28;20443;-53
2021/09/07 02:35:06;;;;;;;13.17;9.47;;;17.40;99.90;;;;;;4988205;28;20513;-54
2021/09/07 02:37:33;;;;;;;14.93;9.80;;;17.30;99.90;;;;;;4988498;28;20446;-51
2021/09/07 02:39:59;;;;;;;22.20;9.73;;;17.30;99.90;;;;;;4988677;28;20785;-53
2021/09/07 02:42:26;;;;;;;14.77;10.83;;;17.30;99.90;;;;;;4987946;28;20761;-53
2021/09/07 02:44:54;;;;;;;15.40;10.57;;;17.20;99.90;;;;;;4987441;28;20439;-53
2021/09/07 02:47:21;;;;;;;14.67;10.63;;;17.20;99.90;;;;;;4986074;28;20447;-53
2021/09/07 02:49:48;;;;;;;17.30;11.20;;;17.20;99.90;;;;;;4987543;28;20478;-54
2021/09/07 02:52:16;;;;;;;16.57;10.60;;;17.10;99.90;;;;;;4987493;28;20943;-53
2021/09/07 02:54:43;;;;;;;19.07;11.03;;;17.10;99.90;;;;;;4986176;28;20435;-53
2021/09/07 02:57:09;;;;;;;17.93;10.03;;;17.10;99.90;;;;;;4986969;28;20489;-50
2021/09/07 02:59:36;;;;;;;20.13;11.83;;;17.00;99.90;;;;;;4988008;28;20482;-56
2021/09/07 03:02:03;;;;;;;18.57;11.80;;;17.00;99.90;;;;;;4988730;28;20435;-56
2021/09/07 03:04:29;;;;;;;16.57;11.90;;;16.90;99.90;;;;;;4987333;28;20514;-56
2021/09/07 03:06:56;;;;;;;22.13;11.70;;;16.90;99.90;;;;;;4988128;28;20478;-52
2021/09/07 03:09:24;;;;;;;15.50;10.90;;;16.80;99.90;;;;;;4984879;28;20856;-52
2021/09/07 03:11:51;;;;;;;15.87;10.57;;;16.80;99.90;;;;;;4987686;28;20438;-55
2021/09/07 03:14:17;;;;;;;15.20;11.00;;;16.80;99.90;;;;;;4987522;28;20771;-51
2021/09/07 03:16:44;;;;;;;17.67;11.60;;;16.70;99.90;;;;;;4990439;28;20836;-49
2021/09/07 03:19:11;;;;;;;15.20;12.67;;;16.70;99.90;;;;;;4991600;28;20500;-50
2021/09/07 03:21:38;;;;;;;17.80;12.03;;;16.70;99.90;;;;;;4987537;28;20450;-47
2021/09/07 03:24:05;;;;;;;16.13;11.07;;;16.60;99.90;;;;;;4987052;28;20448;-49
2021/09/07 03:26:35;;;;;;;17.80;12.27;;;16.60;99.90;;;;;;4985585;28;20466;-50
2021/09/07 03:29:04;;;;;;;16.20;11.30;;;16.50;99.90;;;;;;4985675;28;20450;-48
2021/09/07 03:31:31;;;;;;;17.00;11.50;;;16.50;99.90;;;;;;4986469;28;20469;-49
2021/09/07 03:33:57;;;;;;;19.60;11.13;;;16.50;99.90;;;;;;4987468;28;20443;-48
2021/09/07 03:36:24;;;;;;;13.90;10.60;;;16.50;99.90;;;;;;4985883;28;20443;-53
2021/09/07 03:38:51;;;;;;;21.33;11.60;;;16.50;99.90;;;;;;4988205;28;20524;-51
2021/09/07 03:41:18;;;;;;;23.23;12.97;;;16.50;99.90;;;;;;4985437;28;20532;-51
2021/09/07 03:43:46;;;;;;;15.07;10.50;;;16.50;99.90;;;;;;4983053;28;20434;-53
2021/09/07 03:46:12;;;;;;;17.00;10.80;;;16.40;99.90;;;;;;4993285;28;20450;-54
2021/09/07 03:48:40;;;;;;;21.83;10.83;;;16.40;99.90;;;;;;4996365;28;20822;-54
2021/09/07 03:51:06;;;;;;;17.23;12.10;;;16.40;99.90;;;;;;4995932;28;20453;-49
2021/09/07 03:53:33;;;;;;;17.47;11.10;;;16.40;99.90;;;;;;4990121;28;20831;-49
2021/09/07 03:56:00;;;;;;;18.13;12.03;;;16.30;99.90;;;;;;4987728;28;20447;-51
2021/09/07 03:58:27;;;;;;;20.77;12.30;;;16.30;99.90;;;;;;4988045;28;20442;-50
2021/09/07 04:00:55;;;;;;;14.63;10.27;;;16.30;99.90;;;;;;4984758;28;20532;-49
2021/09/07 04:03:22;;;;;;;21.47;11.57;;;16.30;99.90;;;;;;4984520;28;20886;-48
2021/09/07 04:05:49;;;;;;;22.97;13.20;;;16.30;99.90;;;;;;4987468;28;20477;-48
2021/09/07 04:08:16;;;;;;;27.30;14.87;;;16.30;99.90;;;;;;4987932;28;20467;-48
2021/09/07 04:10:42;;;;;;;18.10;11.03;;;16.20;99.90;;;;;;4986327;28;20437;-50
2021/09/07 04:13:10;;;;;;;20.53;13.00;;;16.20;99.90;;;;;;4987680;28;20532;-48
2021/09/07 04:15:36;;;;;;;19.53;12.40;;;16.20;99.90;;;;;;4985830;28;20482;-51
2021/09/07 04:18:04;;;;;;;17.80;11.87;;;16.10;99.90;;;;;;4986048;28;20443;-54
2021/09/07 04:20:31;;;;;;;21.73;13.00;;;16.00;99.90;;;;;;4984520;28;20968;-52
2021/09/07 04:22:57;;;;;;;19.47;12.20;;;16.00;99.90;;;;;;4986865;28;20978;-52
2021/09/07 04:25:24;;;;;;;25.70;14.10;;;15.90;99.90;;;;;;4986730;28;20976;-53
2021/09/07 04:27:51;;;;;;;20.93;14.07;;;15.90;99.90;;;;;;4987313;28;20830;-50
2021/09/07 04:30:18;;;;;;;18.43;12.13;;;15.90;99.90;;;;;;4987329;28;20525;-52
2021/09/07 04:32:45;;;;;;;20.10;12.30;;;15.90;99.90;;;;;;4976734;28;20796;-50
2021/09/07 04:35:13;;;;;;;20.10;12.57;;;15.90;99.90;;;;;;4976293;28;20454;-48
2021/09/07 04:37:40;;;;;;;19.97;14.60;;;15.90;99.90;;;;;;4975737;28;20998;-51
2021/09/07 04:40:07;;;;;;;21.73;14.10;;;15.90;99.90;;;;;;4976047;28;20483;-51
2021/09/07 04:42:34;;;;;;;22.43;13.07;;;15.90;99.90;;;;;;4976132;28;20513;-54
2021/09/07 04:45:00;;;;;;;21.60;12.50;;;15.90;99.90;;;;;;4975900;28;20463;-54
2021/09/07 04:47:27;;;;;;;18.50;13.67;;;16.00;99.90;;;;;;4983789;28;20441;-55
2021/09/07 04:49:54;;;;;;;20.70;13.57;;;16.00;99.90;;;;;;4987344;28;20441;-54
2021/09/07 04:52:22;;;;;;;22.90;14.17;;;15.90;99.90;;;;;;4987073;28;20447;-54
2021/09/07 04:54:48;;;;;;;19.50;15.10;;;15.90;99.90;;;;;;4984338;28;20829;-52
2021/09/07 04:57:15;;;;;;;23.10;13.47;;;15.90;99.90;;;;;;4985259;28;20481;-55
2021/09/07 04:59:42;;;;;;;23.80;16.33;;;16.00;99.90;;;;;;4985604;28;20497;-53
2021/09/07 05:02:11;;;;;;;21.37;12.93;;;16.00;99.90;;;;;;4983925;28;20462;-53
2021/09/07 05:04:38;;;;;;;23.23;14.63;;;16.10;99.90;;;;;;4984735;28;20899;-56
2021/09/07 05:07:04;;;;;;;27.70;16.03;;;16.10;99.90;;;;;;4985954;28;20479;-54
2021/09/07 05:09:32;;;;;;;20.63;13.40;;;16.10;99.90;;;;;;4984653;28;20449;-56
2021/09/07 05:11:59;;;;;;;26.10;14.70;;;16.20;99.90;;;;;;4988158;28;20448;-53
2021/09/07 05:14:26;;;;;;;22.07;14.33;;;16.20;99.90;;;;;;4989002;28;20807;-56
2021/09/07 05:16:52;;;;;;;20.23;14.70;;;16.30;99.90;;;;;;4984721;28;20824;-55
2021/09/07 05:19:19;;;;;;;21.00;13.67;;;16.40;99.90;;;;;;4984889;28;20458;-52
2021/09/07 05:21:46;;;;;;;18.37;12.87;;;16.50;99.90;;;;;;4986114;28;20500;-56
2021/09/07 05:24:12;;;;;;;22.17;13.13;;;16.60;99.90;;;;;;4980520;28;20443;-55
2021/09/07 05:26:40;;;;;;;20.87;13.33;;;16.70;99.90;;;;;;4975410;28;20510;-55
2021/09/07 05:29:07;;;;;;;20.50;13.50;;;16.80;99.90;;;;;;4992032;28;20454;-54
2021/09/07 05:31:34;;;;;;;21.47;12.90;;;16.90;99.90;;;;;;4994236;28;20946;-56
2021/09/07 05:34:00;;;;;;;23.63;13.00;;;17.00;99.90;;;;;;4997842;28;20446;-54
2021/09/07 05:36:27;;;;;;;18.37;11.93;;;17.00;99.90;;;;;;4986740;28;20466;-54
2021/09/07 05:38:54;;;;;;;20.73;13.77;;;17.20;99.90;;;;;;4986634;28;20441;-51
2021/09/07 05:41:20;;;;;;;18.10;13.20;;;17.20;99.90;;;;;;4990762;28;20536;-54
2021/09/07 05:54:10;;;;;;;16.83;12.13;;;17.60;99.90;;;;;;5910958;23;20496;-58
2021/09/07 05:56:37;;;;;;;18.13;12.80;;;17.60;99.90;;;;;;4999986;28;20525;-55
2021/09/07 06:06:51;;;;;;;14.50;11.73;;;17.90;99.90;;;;;;5374230;23;20946;-51
2021/09/07 06:09:19;;;;;;;17.03;11.33;;;18.00;99.90;;;;;;4987595;28;20450;-54
2021/09/07 06:11:45;;;;;;;13.03;10.73;;;18.10;99.90;;;;;;4987420;28;20457;-49
2021/09/07 06:14:15;;;;;;;17.70;11.60;;;18.10;99.90;;;;;;4985153;28;20459;-55
2021/09/07 06:16:45;;;;;;;17.50;11.83;;;18.10;99.90;;;;;;4995449;28;20443;-51
2021/09/07 06:19:11;;;;;;;17.50;11.33;;;18.10;99.90;;;;;;4989026;28;20442;-54
2021/09/07 06:21:38;;;;;;;19.60;11.53;;;18.20;99.90;;;;;;4989171;28;20529;-52
2021/09/07 06:24:05;;;;;;;21.00;12.20;;;18.20;99.90;;;;;;4988689;28;20908;-56
2021/09/07 06:26:34;;;;;;;21.67;13.90;;;18.20;99.90;;;;;;4994702;28;20454;-55
2021/09/07 06:29:00;;;;;;;14.77;10.63;;;18.30;99.90;;;;;;4991718;28;20461;-54
2021/09/07 06:31:27;;;;;;;16.27;11.70;;;18.30;99.90;;;;;;4988990;28;20766;-54
2021/09/07 06:33:54;;;;;;;15.23;11.40;;;18.40;99.90;;;;;;4986280;28;20882;-53
2021/09/07 06:38:56;;;;;;;18.00;11.10;;;18.40;99.90;;;;;;5782746;23;20485;-54
2021/09/07 06:41:23;;;;;;;15.93;11.23;;;18.40;99.90;;;;;;5697692;23;20808;-53
2021/09/07 07:33:09;;;;;;;14.93;10.30;;;19.30;99.90;;;;;;5940323;23;20457;-52
2021/09/07 07:35:36;;;;;;;17.83;11.60;;;19.40;99.90;;;;;;4998076;28;20477;-55
2021/09/07 07:38:03;;;;;;;15.10;10.27;;;19.40;99.90;;;;;;4987433;28;20439;-53
2021/09/07 07:40:30;;;;;;;16.40;11.87;;;19.60;99.90;;;;;;4991684;28;20907;-55
2021/09/07 07:42:57;;;;;;;16.60;9.83;;;19.70;99.90;;;;;;4986930;28;20509;-54
2021/09/07 07:45:23;;;;;;;17.00;11.43;;;19.70;99.90;;;;;;4989832;28;20496;-54
2021/09/07 07:47:50;;;;;;;15.60;9.17;;;19.80;99.90;;;;;;4989673;28;20443;-53
2021/09/07 07:50:18;;;;;;;13.23;9.43;;;19.90;99.90;;;;;;4987052;28;20454;-52
2021/09/07 07:52:45;;;;;;;14.67;9.30;;;19.90;99.90;;;;;;4988483;28;20546;-55
2021/09/07 07:55:12;;;;;;;14.27;8.70;;;20.00;99.90;;;;;;4991397;28;20447;-55
2021/09/07 07:57:39;;;;;;;15.80;9.67;;;20.20;99.90;;;;;;4986319;28;20442;-53
2021/09/07 08:00:06;;;;;;;15.93;10.13;;;20.20;99.90;;;;;;4986983;28;21011;-55
2021/09/07 08:02:33;;;;;;;12.83;8.87;;;20.20;99.90;;;;;;4984863;28;20570;-52
2021/09/07 08:05:00;;;;;;;13.73;9.40;;;20.30;99.90;;;;;;4989262;28;20443;-51
2021/09/07 08:07:28;;;;;;;17.23;8.43;;;20.50;99.90;;;;;;4991940;28;20449;-49
2021/09/07 08:09:55;;;;;;;12.80;8.40;;;20.80;99.90;;;;;;4988691;28;20469;-56
2021/09/07 08:12:22;;;;;;;18.27;9.10;;;21.90;99.90;;;;;;4987002;28;20467;-53
2021/09/07 08:14:49;;;;;;;9.90;7.40;;;23.20;99.90;;;;;;4985625;28;20451;-56
2021/09/07 08:17:15;;;;;;;11.43;8.60;;;24.70;99.90;;;;;;4984674;28;20449;-52
2021/09/07 08:19:42;;;;;;;12.03;7.80;;;26.10;99.90;;;;;;4990842;28;20477;-52
2021/09/07 08:24:49;;;;;;;10.20;8.30;;;28.70;96.30;;;;;;5622333;23;20490;-51
2021/09/07 08:27:15;;;;;;;13.60;8.57;;;29.40;91.60;;;;;;4984114;28;20438;-50
2021/09/07 08:29:42;;;;;;;11.90;8.87;;;30.00;86.80;;;;;;4983799;28;20450;-55
2021/09/07 08:32:09;;;;;;;12.00;9.07;;;30.60;79.40;;;;;;4981998;28;20439;-52
2021/09/07 08:34:36;;;;;;;12.73;8.50;;;31.10;76.80;;;;;;4987033;28;20528;-57
2021/09/07 08:37:04;;;;;;;11.00;8.80;;;31.40;72.90;;;;;;4981191;28;20435;-56
2021/09/07 08:39:30;;;;;;;10.40;8.87;;;31.50;69.90;;;;;;4974862;28;20442;-56
2021/09/07 08:41:59;;;;;;;14.97;9.63;;;31.80;67.80;;;;;;4974629;28;20486;-56
2021/09/07 08:44:27;;;;;;;11.47;8.93;;;32.20;67.10;;;;;;4974645;28;20455;-52
2021/09/07 08:46:54;;;;;;;11.80;9.47;;;32.40;63.80;;;;;;4975347;28;20466;-55
2021/09/07 08:49:21;;;;;;;11.80;8.43;;;32.50;62.60;;;;;;4975543;28;20454;-57
2021/09/07 08:51:48;;;;;;;11.30;8.70;;;32.50;60.70;;;;;;4975573;28;20462;-55
2021/09/07 08:54:15;;;;;;;11.70;9.17;;;32.70;60.40;;;;;;4975317;28;20450;-57
2021/09/07 08:56:42;;;;;;;12.53;10.27;;;32.90;59.30;;;;;;4975347;28;20533;-56
2021/09/07 08:59:11;;;;;;;11.50;9.17;;;32.90;58.50;;;;;;4975300;28;20857;-53
2021/09/07 09:01:39;;;;;;;11.60;9.30;;;32.70;58.60;;;;;;4975415;28;20483;-57
2021/09/07 09:04:06;;;;;;;12.93;10.07;;;32.40;59.30;;;;;;4975154;28;20467;-55
2021/09/07 09:06:33;;;;;;;12.07;10.37;;;32.10;59.10;;;;;;4974597;28;20585;-55
2021/09/07 09:09:04;;;;;;;13.87;10.47;;;31.90;60.30;;;;;;4975282;28;20474;-56
2021/09/07 09:11:50;;;;;;;11.70;8.73;;;31.60;59.50;;;;;;4975200;28;20513;-54
2021/09/07 09:14:32;;;;;;;13.30;9.30;;;31.50;60.20;;;;;;4975521;28;20517;-55
2021/09/07 09:17:01;;;;;;;13.17;9.63;;;31.70;59.50;;;;;;4975209;28;20464;-57
2021/09/07 09:19:28;;;;;;;11.33;9.00;;;32.10;58.20;;;;;;4975229;28;20450;-56
2021/09/07 09:21:57;;;;;;;11.97;9.20;;;32.20;58.50;;;;;;4974849;28;20584;-57
2021/09/07 09:24:24;;;;;;;11.80;8.80;;;32.20;58.00;;;;;;4975240;28;20541;-54
2021/09/07 09:26:53;;;;;;;10.83;8.80;;;32.40;57.70;;;;;;4975019;28;20454;-57
2021/09/07 09:29:21;;;;;;;10.20;9.13;;;32.70;57.40;;;;;;4975048;28;20866;-55
2021/09/07 09:31:55;;;;;;;11.20;9.50;;;32.80;57.10;;;;;;4975034;28;20844;-55
2021/09/07 09:34:22;;;;;;;11.50;9.80;;;32.80;56.40;;;;;;4975091;28;20545;-58
2021/09/07 09:36:57;;;;;;;14.03;9.60;;;32.90;57.10;;;;;;4975106;28;20458;-57
2021/09/07 09:39:48;;;;;;;10.23;8.90;;;32.90;56.30;;;;;;4974887;28;20477;-54
2021/09/07 09:42:18;;;;;;;12.20;9.03;;;32.50;56.00;;;;;;4951492;28;20487;-55
2021/09/07 09:44:44;;;;;;;13.20;9.20;;;31.80;57.00;;;;;;4974883;28;20446;-54
2021/09/07 09:47:13;;;;;;;14.70;9.47;;;31.00;57.60;;;;;;4974707;28;20466;-55
2021/09/07 09:49:43;;;;;;;12.23;10.03;;;31.00;58.40;;;;;;4974614;28;20447;-56
2021/09/07 09:52:10;;;;;;;13.40;9.40;;;31.30;58.00;;;;;;4974877;28;20754;-56
2021/09/07 09:54:38;;;;;;;11.23;8.17;;;31.40;58.20;;;;;;4974954;28;20463;-57
2021/09/07 09:57:07;;;;;;;9.70;8.30;;;31.70;57.90;;;;;;4974701;28;20459;-55
2021/09/07 09:59:34;;;;;;;10.67;9.00;;;32.00;57.20;;;;;;4975011;28;20494;-55
2021/09/07 10:02:01;;;;;;;10.60;8.67;;;31.60;56.90;;;;;;4974333;28;20500;-57
2021/09/07 10:04:32;;;;;;;12.77;9.20;;;31.30;58.40;;;;;;4974727;28;20467;-57
2021/09/07 10:06:59;;;;;;;11.77;8.40;;;31.50;58.50;;;;;;4974751;28;20447;-57
2021/09/07 10:09:27;;;;;;;10.80;8.73;;;31.70;57.80;;;;;;4974539;28;20506;-55
2021/09/07 10:12:02;;;;;;;11.10;8.70;;;31.20;57.50;;;;;;4974464;28;20534;-55
2021/09/07 10:14:32;;;;;;;14.07;8.10;;;30.70;58.90;;;;;;4974530;28;20458;-54
2021/09/07 10:17:32;;;;;;;14.50;10.17;;;29.90;60.50;;;;;;4974498;28;20975;-56
2021/09/07 10:20:09;;;;;;;13.00;9.30;;;29.50;61.90;;;;;;4978063;28;20786;-55
2021/09/07 10:25:58;;;;;;;10.10;9.10;;;30.10;60.00;;;;;;4969227;28;20522;-55
2021/09/07 10:28:33;;;;;;;9.37;7.63;;;29.70;59.40;;;;;;4955334;28;20479;-55
2021/09/07 10:31:02;;;;;;;11.83;8.10;;;29.70;61.40;;;;;;4978015;28;20457;-56
2021/09/07 10:33:31;;;;;;;13.17;8.13;;;29.50;62.20;;;;;;4977727;28;20452;-54
2021/09/07 10:36:07;;;;;;;10.63;8.77;;;28.90;62.80;;;;;;4978021;28;20762;-55
2021/09/07 10:38:42;;;;;;;10.07;8.10;;;28.10;65.70;;;;;;4977815;28;20785;-55
2021/09/07 10:41:10;;;;;;;9.83;8.17;;;27.30;67.30;;;;;;4977930;28;20446;-53
2021/09/07 10:43:51;;;;;;;10.87;8.13;;;26.60;69.20;;;;;;4977685;28;20923;-55
2021/09/07 10:46:38;;;;;;;11.50;7.93;;;26.60;69.40;;;;;;4978124;28;20461;-55
2021/09/07 10:49:24;;;;;;;14.30;8.17;;;27.10;69.10;;;;;;4977596;28;20927;-56
2021/09/07 10:52:08;;;;;;;12.87;7.37;;;27.50;67.70;;;;;;4977694;28;20502;-54
2021/09/07 10:54:41;;;;;;;10.53;7.90;;;27.80;66.80;;;;;;4977308;28;20856;-56
2021/09/07 10:57:08;;;;;;;9.33;7.63;;;27.80;66.80;;;;;;4977455;28;20545;-54
2021/09/07 10:59:50;;;;;;;10.23;8.07;;;27.30;66.60;;;;;;4977765;28;20584;-55
2021/09/07 11:02:36;;;;;;;14.83;10.63;;;26.90;68.20;;;;;;4977947;28;20816;-60
2021/09/07 11:05:04;;;;;;;15.57;9.20;;;26.40;70.40;;;;;;4977963;28;20911;-50
2021/09/07 11:07:41;;;;;;;10.23;9.20;;;26.00;71.40;;;;;;4978134;28;20521;-52
2021/09/07 11:10:26;;;;;;;10.53;8.87;;;25.60;73.00;;;;;;4978388;28;20431;-56
2021/09/07 11:12:54;;;;;;;11.03;8.17;;;25.30;74.50;;;;;;4977211;28;20530;-54
2021/09/07 11:15:23;;;;;;;10.83;8.43;;;25.10;74.20;;;;;;4977269;28;20458;-53
2021/09/07 11:17:52;;;;;;;11.30;8.10;;;25.20;75.20;;;;;;4977249;28;20455;-56
2021/09/07 11:20:20;;;;;;;10.83;8.00;;;25.20;76.30;;;;;;4977331;28;20459;-54
2021/09/07 11:22:48;;;;;;;8.27;7.20;;;25.30;75.10;;;;;;4976900;28;20528;-51
2021/09/07 11:25:17;;;;;;;11.90;7.60;;;25.30;75.60;;;;;;4976988;28;20494;-55
2021/09/07 11:27:55;;;;;;;10.07;7.30;;;25.20;76.20;;;;;;4977018;28;20447;-54
2021/09/07 11:30:27;;;;;;;8.23;7.00;;;25.20;75.90;;;;;;4976232;28;20450;-57
2021/09/07 11:33:06;;;;;;;8.10;6.07;;;25.20;77.10;;;;;;4976904;28;20461;-57
2021/09/07 11:35:36;;;;;;;7.93;6.30;;;25.20;77.20;;;;;;4977119;28;20537;-56
2021/09/07 11:38:06;;;;;;;8.20;6.67;;;25.20;76.90;;;;;;4976656;28;20454;-57
2021/09/07 11:40:34;;;;;;;7.93;6.50;;;25.10;75.80;;;;;;4976712;28;20485;-55
2021/09/07 11:43:01;;;;;;;7.60;6.10;;;25.10;77.10;;;;;;4976561;28;21022;-56
2021/09/07 11:45:33;;;;;;;8.83;6.07;;;25.20;77.90;;;;;;4976623;28;20462;-57
2021/09/07 11:48:00;;;;;;;10.80;6.80;;;25.30;77.10;;;;;;4976828;28;20486;-57
2021/09/07 11:50:30;;;;;;;9.00;6.27;;;25.50;76.20;;;;;;4976422;28;20450;-57
2021/09/07 11:52:58;;;;;;;9.07;6.53;;;25.60;76.20;;;;;;4976319;28;21022;-57
2021/09/07 11:55:50;;;;;;;9.27;6.50;;;25.50;74.80;;;;;;4976606;28;20458;-57
2021/09/07 11:58:38;;;;;;;11.17;6.60;;;25.40;75.50;;;;;;4976432;28;20536;-57
2021/09/07 12:01:16;;;;;;;8.00;6.07;;;25.20;76.50;;;;;;4976480;28;20454;-57
2021/09/07 12:03:48;;;;;;;10.53;6.27;;;25.00;76.60;;;;;;4976178;28;20489;-54
2021/09/07 12:06:17;;;;;;;6.83;6.13;;;24.90;76.80;;;;;;4976328;28;20451;-56
2021/09/07 12:08:46;;;;;;;8.13;6.47;;;24.80;77.90;;;;;;4976349;28;20820;-56
2021/09/07 12:11:27;;;;;;;10.07;6.30;;;24.80;79.00;;;;;;4976180;28;20491;-56
2021/09/07 12:14:05;;;;;;;6.60;5.83;;;24.80;79.10;;;;;;4975906;28;20478;-56
2021/09/07 12:16:33;;;;;;;8.00;6.33;;;24.70;77.30;;;;;;4975966;28;20509;-57
2021/09/07 12:19:19;;;;;;;10.20;5.93;;;24.50;77.90;;;;;;4976067;28;20467;-55
2021/09/07 12:21:45;;;;;;;10.73;7.17;;;24.50;79.80;;;;;;4976036;28;20454;-53
2021/09/07 12:24:14;;;;;;;7.77;5.90;;;24.50;79.90;;;;;;4975995;28;20562;-56
2021/09/07 12:26:43;;;;;;;9.93;6.70;;;24.70;79.10;;;;;;4975853;28;20470;-56
2021/09/07 12:29:16;;;;;;;6.90;6.20;;;24.70;78.90;;;;;;4976014;28;20442;-55
2021/09/07 12:31:43;;;;;;;7.80;5.77;;;24.50;78.90;;;;;;4975707;28;20458;-54
2021/09/07 12:34:10;;;;;;;9.50;5.97;;;24.50;78.50;;;;;;4968028;28;20474;-54
2021/09/07 12:36:44;;;;;;;9.00;6.83;;;24.50;78.40;;;;;;4975500;28;20443;-56
2021/09/07 12:39:11;;;;;;;7.20;6.50;;;24.50;78.70;;;;;;4975721;28;20533;-56
2021/09/07 12:41:38;;;;;;;8.70;5.70;;;24.60;78.40;;;;;;4975620;28;20493;-60
2021/09/07 12:44:06;;;;;;;8.30;6.30;;;24.60;78.60;;;;;;4975651;28;20506;-55
2021/09/07 12:46:34;;;;;;;8.40;6.53;;;24.70;79.00;;;;;;4975541;28;20518;-55
2021/09/07 12:49:01;;;;;;;9.20;6.80;;;24.80;79.70;;;;;;4975586;28;20466;-52
2021/09/07 12:51:28;;;;;;;6.17;5.40;;;24.80;79.60;;;;;;4975384;28;20462;-55
2021/09/07 12:53:59;;;;;;;9.17;7.30;;;24.90;80.60;;;;;;4975389;28;20526;-55
2021/09/07 12:56:29;;;;;;;8.27;6.77;;;24.90;80.20;;;;;;4975812;28;20443;-56
2021/09/07 12:58:58;;;;;;;10.30;6.50;;;25.00;80.00;;;;;;4975792;28;20450;-54
2021/09/07 13:01:28;;;;;;;6.60;5.23;;;25.10;79.60;;;;;;4975613;28;20474;-56
2021/09/07 13:03:55;;;;;;;9.00;7.37;;;25.20;80.20;;;;;;4975518;28;20888;-53
2021/09/07 13:06:23;;;;;;;10.07;7.13;;;25.40;80.90;;;;;;4975438;28;20454;-56
2021/09/07 13:08:50;;;;;;;11.13;8.13;;;25.30;81.40;;;;;;4975297;28;20469;-52
2021/09/07 13:11:18;;;;;;;9.20;7.50;;;25.10;81.70;;;;;;4975498;28;20456;-57
2021/09/07 13:13:46;;;;;;;15.20;7.43;;;25.00;83.20;;;;;;4975298;28;20834;-54
2021/09/07 13:16:14;;;;;;;8.93;6.73;;;24.90;83.20;;;;;;4975300;28;20546;-53
2021/09/07 13:18:42;;;;;;;9.00;7.47;;;24.80;84.50;;;;;;4975404;28;20979;-56
2021/09/07 13:21:12;;;;;;;9.60;7.40;;;24.70;84.10;;;;;;4975280;28;20834;-55
2021/09/07 13:23:40;;;;;;;8.73;6.80;;;24.60;84.80;;;;;;4975306;28;20475;-56
2021/09/07 13:26:07;;;;;;;13.70;7.90;;;24.50;84.40;;;;;;4974831;28;20478;-54
2021/09/07 13:28:34;;;;;;;8.40;6.93;;;24.50;84.70;;;;;;4975174;28;20450;-55
2021/09/07 13:31:01;;;;;;;7.77;6.97;;;24.40;84.50;;;;;;4975264;28;20513;-55
2021/09/07 13:33:28;;;;;;;10.70;6.37;;;24.40;84.40;;;;;;4975035;28;20454;-53
2021/09/07 13:35:57;;;;;;;8.60;6.30;;;24.50;84.00;;;;;;4975181;28;20482;-51
2021/09/07 13:38:23;;;;;;;9.93;6.20;;;24.50;82.70;;;;;;4975009;28;20450;-53
2021/09/07 13:40:50;;;;;;;10.00;6.47;;;24.60;82.90;;;;;;4975143;28;20506;-52
2021/09/07 13:43:17;;;;;;;8.57;7.20;;;24.60;82.40;;;;;;4974806;28;20545;-54
2021/09/07 13:45:44;;;;;;;7.20;6.30;;;24.80;82.30;;;;;;4975544;28;20460;-58
2021/09/07 13:48:11;;;;;;;7.53;5.70;;;24.90;82.40;;;;;;4976197;28;20451;-48
2021/09/07 13:50:38;;;;;;;8.47;7.10;;;24.90;81.60;;;;;;4983240;28;20451;-54
2021/09/07 13:53:06;;;;;;;8.23;6.37;;;24.90;80.80;;;;;;4984529;28;20792;-55
2021/09/07 13:58:08;;;;;;;8.03;6.37;;;24.80;80.00;;;;;;5218892;23;20489;-56